PRC weather

Prescott Regional Airport - Ernest A. Love Field
Prescott, Arizona, United States

Public forecast

Using degrees Fahrenheit for public forecast. Weather courtesy of forecast.io.

Current aviation weather report (METAR) for Prescott Regional Airport - Ernest A. Love Field

Retrieved 2020/02/29 07:53 UTC (46 minutes ago):

KPRC 290753Z AUTO 20007KT 10SM CLR 02/M07 A3018 RMK AO2 SLP187 T00221072

Aviation forecast (TAF) for Prescott Regional Airport - Ernest A. Love Field

Retrieved 2020/02/29 06:28 UTC (2 hours ago):

TAF KPRC 290526Z 2906/0106 18006KT P6SM BKN200 FM291800 23010G17KT P6SM SCT150